Time;durP1;ratioP1;P1;durP2;ratioP2;P2;SDS_P1;SDS_P2;PMS_P1;PMS_P2;Temp;Humidity;BMP_temperature;BMP_pressure;BME280_temperature;BME280_humidity;BME280_pressure;Samples;Min_cycle;Max_cycle;Signal;HPM_P1;HPM_P2
2021/08/08 00:01:06;;;;;;;4.83;1.40;;;;;;;16.83;99.21;95747.00;4994488;28;20173;-66
2021/08/08 00:03:32;;;;;;;1.87;1.13;;;;;;;16.94;98.70;95726.50;4994273;28;20204;-59
2021/08/08 00:05:57;;;;;;;1.50;1.30;;;;;;;16.70;99.97;95726.44;4994263;28;20612;-60
2021/08/08 00:08:27;;;;;;;4.03;1.60;;;;;;;16.62;100.00;95721.75;4982348;28;20221;-60
2021/08/08 00:10:52;;;;;;;6.97;1.63;;;;;;;16.79;99.61;95724.78;4986032;28;20185;-64
2021/08/08 00:13:18;;;;;;;2.53;1.33;;;;;;;16.70;99.45;95736.25;4994097;28;20988;-61
2021/08/08 00:15:43;;;;;;;5.30;1.30;;;;;;;16.71;99.32;95738.63;4994313;28;20580;-65
2021/08/08 00:18:09;;;;;;;5.27;1.47;;;;;;;16.60;100.00;95749.59;4993119;28;20528;-64
2021/08/08 00:20:35;;;;;;;2.00;1.20;;;;;;;16.58;100.00;95739.28;4994469;28;20177;-60
2021/08/08 00:23:01;;;;;;;1.40;1.30;;;;;;;16.71;100.00;95749.25;4981532;28;20261;-64
2021/08/08 00:25:26;;;;;;;2.93;1.63;;;;;;;16.76;99.62;95751.84;4974481;28;20718;-59
2021/08/08 00:27:52;;;;;;;2.80;1.60;;;;;;;16.74;99.44;95753.22;4974282;28;20841;-59
2021/08/08 00:30:18;;;;;;;6.63;1.43;;;;;;;16.78;99.38;95757.69;4976850;28;20181;-64
2021/08/08 00:32:43;;;;;;;3.10;1.30;;;;;;;16.91;98.78;95745.63;4993476;28;20196;-65
2021/08/08 00:35:10;;;;;;;3.10;1.40;;;;;;;16.89;98.06;95751.22;4993891;28;20185;-65
2021/08/08 00:37:37;;;;;;;1.33;1.20;;;;;;;16.79;98.69;95758.47;4993757;28;20168;-64
2021/08/08 00:40:03;;;;;;;2.50;1.30;;;;;;;16.64;99.06;95742.69;4993041;28;20989;-65
2021/08/08 00:42:29;;;;;;;4.60;1.60;;;;;;;16.77;98.85;95748.16;4993708;28;20424;-60
2021/08/08 00:44:54;;;;;;;6.90;1.53;;;;;;;16.54;99.50;95746.19;4993234;28;20517;-65
2021/08/08 00:47:20;;;;;;;3.40;3.13;;;;;;;16.46;100.00;95752.88;4993972;28;20205;-60
2021/08/08 00:49:45;;;;;;;6.50;1.77;;;;;;;16.58;99.59;95751.78;4993927;28;20215;-60
2021/08/08 00:52:11;;;;;;;4.50;1.63;;;;;;;16.62;99.74;95760.72;4994068;28;20269;-60
2021/08/08 00:54:36;;;;;;;2.60;1.30;;;;;;;16.44;100.00;95764.81;4993731;28;20185;-60
2021/08/08 00:57:02;;;;;;;1.57;1.47;;;;;;;16.27;100.00;95759.91;4993774;28;20177;-65
2021/08/08 00:59:27;;;;;;;2.37;1.43;;;;;;;16.42;100.00;95757.16;4979830;28;20174;-65
2021/08/08 01:01:54;;;;;;;4.30;1.13;;;;;;;16.42;99.66;95765.09;4974708;28;20228;-61
2021/08/08 01:04:29;;;;;;;1.97;1.30;;;;;;;16.32;99.95;95767.81;4972851;28;20691;-65
2021/08/08 01:07:14;;;;;;;4.43;1.20;;;;;;;16.28;99.98;95764.16;4974767;28;20543;-65
2021/08/08 01:09:44;;;;;;;1.60;1.50;;;;;;;16.44;99.14;95768.28;4977416;28;20424;-65
2021/08/08 01:12:10;;;;;;;4.27;1.37;;;;;;;16.47;98.50;95777.56;4993857;28;20420;-60
2021/08/08 01:14:37;;;;;;;1.70;1.27;;;;;;;16.48;98.36;95771.19;4976718;28;20791;-60
2021/08/08 01:17:04;;;;;;;5.47;1.47;;;;;;;16.37;98.50;95777.59;4974433;28;20170;-60
2021/08/08 01:19:35;;;;;;;3.63;1.53;;;;;;;16.36;98.56;95776.00;4973220;28;20414;-60
2021/08/08 01:22:03;;;;;;;1.90;1.10;;;;;;;16.40;97.98;95777.06;4983628;28;20424;-65
2021/08/08 01:24:29;;;;;;;3.80;1.20;;;;;;;16.52;97.78;95776.75;4993508;28;20436;-60
2021/08/08 01:26:55;;;;;;;3.80;1.10;;;;;;;16.43;97.74;95785.25;4993842;28;20547;-60
2021/08/08 01:29:20;;;;;;;1.50;1.40;;;;;;;16.60;97.14;95797.34;4993928;28;20463;-65
2021/08/08 01:31:51;;;;;;;4.33;1.77;;;;;;;16.74;96.50;95785.06;4993697;28;20530;-65
2021/08/08 01:34:16;;;;;;;3.70;1.20;;;;;;;16.79;96.07;95790.31;4976436;28;20249;-61
2021/08/08 01:36:44;;;;;;;2.50;1.40;;;;;;;16.74;96.39;95788.47;4993650;28;20412;-65
2021/08/08 01:39:16;;;;;;;1.83;1.33;;;;;;;16.77;96.14;95800.41;4989508;28;20174;-61
2021/08/08 01:41:44;;;;;;;2.10;1.43;;;;;;;16.74;96.31;95801.75;4978152;28;20432;-61
2021/08/08 01:44:12;;;;;;;2.60;1.10;;;;;;;16.86;95.55;95796.09;4977375;28;20436;-60
2021/08/08 01:46:38;;;;;;;1.50;1.40;;;;;;;16.62;96.44;95796.03;4977684;28;20457;-60
2021/08/08 01:49:06;;;;;;;4.40;1.30;;;;;;;16.47;97.80;95801.44;4977868;28;20401;-65
2021/08/08 01:51:31;;;;;;;3.47;1.30;;;;;;;16.36;97.78;95805.19;4983248;28;20425;-61
2021/08/08 01:53:57;;;;;;;7.00;1.50;;;;;;;16.33;98.20;95795.94;4980367;28;20456;-62
2021/08/08 01:56:22;;;;;;;2.33;1.60;;;;;;;16.29;98.42;95805.50;4978347;28;20163;-65
2021/08/08 01:58:48;;;;;;;2.20;1.20;;;;;;;16.36;97.88;95805.97;4977830;28;20173;-65
2021/08/08 02:01:13;;;;;;;4.47;1.27;;;;;;;16.44;97.83;95804.59;4977600;28;20222;-65
2021/08/08 02:03:40;;;;;;;1.47;1.37;;;;;;;16.34;98.20;95802.03;4977101;28;20174;-60
2021/08/08 02:06:07;;;;;;;2.30;1.37;;;;;;;16.34;98.24;95802.03;4982153;28;20208;-65
2021/08/08 02:08:33;;;;;;;2.33;1.40;;;;;;;16.28;98.55;95811.88;4996103;28;20425;-65
2021/08/08 02:10:59;;;;;;;4.93;1.70;;;;;;;16.39;97.69;95797.50;4996805;28;20424;-65
2021/08/08 02:13:25;;;;;;;2.67;1.70;;;;;;;16.36;97.77;95808.63;4996444;28;20184;-60
2021/08/08 02:15:50;;;;;;;1.67;1.23;;;;;;;16.51;96.99;95804.31;4993023;28;20197;-65
2021/08/08 02:18:16;;;;;;;1.47;1.30;;;;;;;16.35;97.43;95803.59;4977279;28;20776;-65
2021/08/08 02:20:43;;;;;;;2.53;1.10;;;;;;;16.52;97.02;95819.97;4991499;28;20228;-60
2021/08/08 02:23:08;;;;;;;2.03;1.07;;;;;;;16.60;96.48;95816.72;4995913;28;20953;-61
2021/08/08 02:25:34;;;;;;;2.03;1.83;;;;;;;16.63;95.60;95821.47;4996388;28;20472;-60
2021/08/08 02:27:59;;;;;;;2.13;1.40;;;;;;;16.57;96.34;95822.59;4987901;28;20181;-60
2021/08/08 02:30:24;;;;;;;1.97;1.10;;;;;;;16.59;95.90;95819.66;4977252;28;20238;-66
2021/08/08 02:32:51;;;;;;;1.20;1.10;;;;;;;16.52;96.34;95814.69;4976961;28;20644;-60
2021/08/08 02:35:16;;;;;;;2.40;1.60;;;;;;;16.56;96.21;95814.91;4976904;28;20742;-60
2021/08/08 02:37:42;;;;;;;2.30;1.20;;;;;;;16.63;96.29;95820.69;4977052;28;20408;-65
2021/08/08 02:40:08;;;;;;;1.40;1.10;;;;;;;16.60;96.12;95826.53;4977012;28;20531;-60
2021/08/08 02:42:33;;;;;;;1.87;1.20;;;;;;;16.60;95.79;95835.28;4979406;28;20197;-61
2021/08/08 02:44:59;;;;;;;1.97;1.20;;;;;;;16.57;95.92;95824.44;4976380;28;20461;-65
2021/08/08 02:47:27;;;;;;;2.67;1.57;;;;;;;16.73;95.25;95818.75;4976663;28;20277;-65
2021/08/08 02:49:52;;;;;;;1.77;1.10;;;;;;;16.64;95.65;95824.91;4976834;28;20206;-65
2021/08/08 02:52:17;;;;;;;1.57;1.10;;;;;;;16.67;95.42;95824.38;4975803;28;20448;-61
2021/08/08 02:54:43;;;;;;;1.43;1.00;;;;;;;16.59;95.67;95828.41;4976131;28;20194;-65
2021/08/08 02:57:08;;;;;;;4.30;1.40;;;;;;;16.51;96.40;95831.63;4981657;28;20248;-60
2021/08/08 02:59:35;;;;;;;2.60;1.40;;;;;;;16.58;95.61;95828.69;4995974;28;20213;-60
2021/08/08 03:02:01;;;;;;;1.60;1.30;;;;;;;16.51;96.50;95841.44;4996238;28;20169;-65
2021/08/08 03:04:26;;;;;;;3.20;1.17;;;;;;;16.52;96.40;95849.16;4995571;28;20938;-65
2021/08/08 03:06:51;;;;;;;1.50;1.20;;;;;;;16.66;96.19;95851.97;4995866;28;20331;-64
2021/08/08 03:09:17;;;;;;;3.53;1.37;;;;;;;16.74;95.79;95854.03;4995853;28;20687;-65
2021/08/08 03:11:45;;;;;;;3.50;1.30;;;;;;;16.73;95.60;95858.56;4991725;28;20178;-65
2021/08/08 03:14:16;;;;;;;2.20;1.33;;;;;;;16.71;96.04;95863.34;4975882;28;20264;-60
2021/08/08 03:16:42;;;;;;;3.73;1.27;;;;;;;16.69;95.83;95873.44;4976269;28;20402;-65
2021/08/08 03:19:09;;;;;;;3.60;1.30;;;;;;;16.82;95.43;95875.47;4976384;28;20855;-65
2021/08/08 03:21:34;;;;;;;2.13;1.30;;;;;;;16.77;95.26;95882.66;4976220;28;20445;-64
2021/08/08 03:24:00;;;;;;;4.70;1.40;;;;;;;16.65;96.03;95876.94;4975525;28;20441;-65
2021/08/08 03:26:26;;;;;;;1.30;1.20;;;;;;;16.76;95.52;95876.56;4979362;28;20240;-65
2021/08/08 03:28:52;;;;;;;5.80;1.30;;;;;;;16.84;94.94;95877.84;4995444;28;20413;-65
2021/08/08 03:31:19;;;;;;;1.60;1.50;;;;;;;16.67;95.82;95877.44;4994202;28;20421;-65
2021/08/08 03:33:44;;;;;;;2.80;1.47;;;;;;;16.75;95.76;95879.50;4993688;28;20204;-60
2021/08/08 03:36:11;;;;;;;3.97;1.43;;;;;;;16.78;95.05;95885.03;4995374;28;20401;-61
2021/08/08 03:38:37;;;;;;;3.70;1.43;;;;;;;16.81;94.69;95879.22;4995177;28;20169;-65
2021/08/08 03:41:02;;;;;;;1.80;1.60;;;;;;;16.90;94.56;95882.06;4992338;28;20434;-65
2021/08/08 03:43:27;;;;;;;2.30;1.20;;;;;;;16.98;94.16;95886.75;4975453;28;20696;-65
2021/08/08 03:45:53;;;;;;;2.70;1.67;;;;;;;17.06;93.38;95900.25;4975429;28;20616;-65
2021/08/08 03:48:18;;;;;;;1.50;1.40;;;;;;;16.96;93.49;95910.94;4975820;28;20574;-60
2021/08/08 03:50:43;;;;;;;4.17;1.43;;;;;;;17.04;93.48;95901.59;4975677;28;20594;-61
2021/08/08 03:53:09;;;;;;;2.20;1.13;;;;;;;17.06;93.00;95907.41;4975544;28;20519;-65
2021/08/08 03:55:34;;;;;;;1.80;1.43;;;;;;;17.08;92.84;95903.44;4975926;28;20194;-60
2021/08/08 03:57:59;;;;;;;3.57;1.37;;;;;;;17.08;92.84;95907.94;4994911;28;20174;-60
2021/08/08 04:00:25;;;;;;;3.23;1.00;;;;;;;17.13;92.46;95902.56;4994850;28;20511;-60
2021/08/08 04:02:50;;;;;;;1.77;1.10;;;;;;;17.15;92.30;95905.75;4994421;28;20162;-65
2021/08/08 04:05:15;;;;;;;2.37;1.27;;;;;;;17.10;92.11;95908.44;4994734;28;20220;-61
2021/08/08 04:07:41;;;;;;;2.07;1.30;;;;;;;17.17;92.08;95911.56;4994794;28;20204;-65
2021/08/08 04:10:07;;;;;;;1.73;1.17;;;;;;;17.12;91.68;95911.63;4994802;28;20165;-65
2021/08/08 04:12:32;;;;;;;2.93;1.53;;;;;;;17.14;91.85;95917.44;4978270;28;20197;-65
2021/08/08 04:15:00;;;;;;;1.50;1.40;;;;;;;17.16;91.03;95931.22;4994093;28;20193;-65
2021/08/08 04:17:26;;;;;;;1.60;1.20;;;;;;;16.95;92.09;95929.78;4994743;28;20625;-65
2021/08/08 04:19:51;;;;;;;1.60;1.50;;;;;;;16.81;92.21;95936.78;4994632;28;20409;-61
2021/08/08 04:22:16;;;;;;;2.50;1.43;;;;;;;16.97;91.70;95946.25;4994661;28;20212;-60
2021/08/08 04:24:42;;;;;;;2.03;0.90;;;;;;;16.81;92.08;95936.78;4994014;28;20597;-65
2021/08/08 04:27:07;;;;;;;3.07;1.40;;;;;;;16.73;93.11;95942.66;4992947;28;20204;-60
2021/08/08 04:29:32;;;;;;;1.90;1.27;;;;;;;16.71;93.15;95944.78;4974856;28;20174;-60
2021/08/08 04:31:59;;;;;;;1.63;1.13;;;;;;;16.48;94.35;95943.59;4975075;28;20575;-60
2021/08/08 04:34:25;;;;;;;3.83;1.80;;;;;;;16.51;94.14;95945.69;4974338;28;20537;-65
2021/08/08 04:36:50;;;;;;;4.00;1.23;;;;;;;16.36;95.33;95951.84;4975213;28;20500;-65
2021/08/08 04:39:15;;;;;;;5.30;1.50;;;;;;;16.36;95.41;95958.97;4974749;28;20277;-65
2021/08/08 04:41:41;;;;;;;1.57;1.30;;;;;;;16.36;95.48;95957.13;4974920;28;20170;-62
2021/08/08 04:44:06;;;;;;;1.50;1.40;;;;;;;16.30;95.72;95952.13;4993277;28;20201;-65
2021/08/08 04:46:31;;;;;;;2.77;1.40;;;;;;;16.36;95.63;95949.19;4993972;28;20672;-65
2021/08/08 04:48:56;;;;;;;2.60;1.20;;;;;;;16.27;96.01;95948.16;4994269;28;20524;-63
2021/08/08 04:51:22;;;;;;;2.30;1.47;;;;;;;16.38;95.83;95954.22;4994089;28;20658;-65
2021/08/08 04:53:47;;;;;;;2.87;1.33;;;;;;;16.29;95.92;95956.63;4993119;28;20633;-60
2021/08/08 04:56:13;;;;;;;1.20;1.20;;;;;;;16.31;96.28;95965.13;4994078;28;20169;-65
2021/08/08 04:58:38;;;;;;;3.43;1.40;;;;;;;16.43;96.01;95972.78;4976642;28;20194;-65
2021/08/08 05:01:03;;;;;;;2.13;1.73;;;;;;;16.46;95.66;95959.75;4974732;28;20185;-65
2021/08/08 05:03:29;;;;;;;2.00;1.17;;;;;;;16.45;95.58;95966.13;4974388;28;20178;-65
2021/08/08 05:05:54;;;;;;;2.63;1.03;;;;;;;16.50;95.39;95951.28;4974507;28;20190;-60
2021/08/08 05:08:19;;;;;;;3.73;1.20;;;;;;;16.60;94.76;95951.22;4974615;28;20170;-60
2021/08/08 05:10:45;;;;;;;1.47;1.13;;;;;;;16.62;94.37;95949.88;4974453;28;20225;-60
2021/08/08 05:13:10;;;;;;;2.13;1.23;;;;;;;16.67;94.45;95941.13;4989421;28;20180;-60
2021/08/08 05:15:36;;;;;;;1.63;1.23;;;;;;;16.62;94.55;95946.44;4996667;28;20189;-60
2021/08/08 05:18:01;;;;;;;1.40;1.30;;;;;;;16.78;93.89;95950.59;4997909;28;20215;-60
2021/08/08 05:20:27;;;;;;;1.10;1.03;;;;;;;16.53;94.61;95958.69;4998208;28;20224;-60
2021/08/08 05:22:52;;;;;;;1.73;1.00;;;;;;;16.64;94.98;95957.56;4997384;28;20245;-65
2021/08/08 05:25:18;;;;;;;1.20;1.10;;;;;;;16.63;94.74;95954.13;4997755;28;20189;-65
2021/08/08 05:27:43;;;;;;;1.97;1.10;;;;;;;16.65;94.04;95964.47;4983093;28;20201;-65
2021/08/08 05:30:10;;;;;;;1.90;1.30;;;;;;;16.62;94.87;95959.69;4978246;28;20728;-60
2021/08/08 05:32:35;;;;;;;2.90;1.30;;;;;;;16.70;94.45;95967.09;4978021;28;20509;-63
2021/08/08 05:35:02;;;;;;;1.73;1.03;;;;;;;16.66;94.30;95974.81;4978095;28;20431;-61
2021/08/08 05:37:27;;;;;;;3.50;1.10;;;;;;;16.66;94.71;95974.00;4978251;28;20409;-61
2021/08/08 05:39:52;;;;;;;1.70;0.90;;;;;;;16.63;94.54;95978.00;4978160;28;20770;-60
2021/08/08 05:42:19;;;;;;;1.30;1.20;;;;;;;16.75;94.43;95983.00;4989601;28;20215;-59
2021/08/08 05:44:45;;;;;;;1.00;0.90;;;;;;;16.72;94.29;95989.66;4996936;28;20197;-60
2021/08/08 05:47:10;;;;;;;3.80;1.77;;;;;;;16.67;94.17;95987.00;4996972;28;20468;-60
2021/08/08 05:49:36;;;;;;;1.93;0.70;;;;;;;16.53;94.29;95985.22;4997358;28;20414;-61
2021/08/08 05:52:03;;;;;;;1.37;0.67;;;;;;;16.63;94.07;95988.59;4997257;28;20182;-60
2021/08/08 05:54:29;;;;;;;3.23;1.00;;;;;;;16.56;94.08;95995.28;4996849;28;20241;-65
2021/08/08 05:56:55;;;;;;;3.03;1.10;;;;;;;16.45;94.35;95991.84;4984800;28;20427;-65
2021/08/08 05:59:20;;;;;;;1.43;1.07;;;;;;;16.51;94.97;95996.09;4977797;28;20496;-65
2021/08/08 06:01:46;;;;;;;1.00;0.90;;;;;;;16.62;94.81;95996.84;4977688;28;20170;-65
2021/08/08 06:04:11;;;;;;;0.83;0.83;;;;;;;16.74;94.55;95992.78;4977137;28;20245;-65
2021/08/08 06:06:37;;;;;;;3.53;1.20;;;;;;;16.74;93.70;95986.72;4977416;28;20280;-60
2021/08/08 06:09:02;;;;;;;1.03;0.90;;;;;;;16.76;93.60;95987.25;4977594;28;20256;-60
2021/08/08 06:11:28;;;;;;;2.83;1.17;;;;;;;16.96;93.09;95987.91;4987878;28;20177;-60
2021/08/08 06:13:53;;;;;;;1.80;0.90;;;;;;;16.97;92.88;95986.84;4996550;28;20173;-65
2021/08/08 06:16:19;;;;;;;0.90;0.70;;;;;;;17.09;92.66;95992.63;4996924;28;20632;-60
2021/08/08 06:18:44;;;;;;;1.43;0.80;;;;;;;17.09;92.42;95994.47;4996694;28;20640;-60
2021/08/08 06:21:10;;;;;;;3.73;1.00;;;;;;;17.33;91.80;95995.38;4996667;28;20165;-65
2021/08/08 06:23:35;;;;;;;1.33;0.70;;;;;;;17.27;91.28;95999.13;4996687;28;20633;-60
2021/08/08 06:26:00;;;;;;;1.60;0.90;;;;;;;17.28;91.19;95984.78;4985814;28;20661;-65
2021/08/08 06:28:26;;;;;;;1.23;1.00;;;;;;;17.42;90.35;95991.84;4981869;28;20181;-65
2021/08/08 06:30:51;;;;;;;3.07;1.10;;;;;;;17.41;90.27;96000.88;4996574;28;20743;-60
2021/08/08 06:33:17;;;;;;;1.33;0.83;;;;;;;17.56;90.61;96001.84;4996171;28;20260;-61
2021/08/08 06:35:42;;;;;;;1.70;1.20;;;;;;;17.69;90.15;96003.88;4996271;28;20276;-60
2021/08/08 06:38:08;;;;;;;1.00;1.00;;;;;;;17.48;89.88;96003.28;4996581;28;20173;-65
2021/08/08 06:40:33;;;;;;;0.80;0.80;;;;;;;17.35;88.47;96002.00;4996367;28;20575;-60
2021/08/08 06:43:00;;;;;;;1.00;0.87;;;;;;;17.49;89.15;96010.16;4992606;28;20621;-65
2021/08/08 06:45:25;;;;;;;1.07;0.80;;;;;;;17.56;89.10;96010.63;4976647;28;20198;-65
2021/08/08 06:47:51;;;;;;;2.07;1.20;;;;;;;17.65;89.11;96008.16;4976473;28;20465;-65
2021/08/08 06:50:16;;;;;;;2.93;1.17;;;;;;;17.83;88.26;96016.25;4975439;28;20182;-65
2021/08/08 06:52:42;;;;;;;2.43;1.20;;;;;;;17.95;88.44;96011.38;4976301;28;20186;-64
2021/08/08 06:55:07;;;;;;;1.10;0.90;;;;;;;17.96;87.27;96007.63;4976611;28;20200;-65
2021/08/08 06:57:33;;;;;;;2.60;1.30;;;;;;;18.04;86.84;96012.34;4978236;28;20178;-60
2021/08/08 06:59:58;;;;;;;1.97;1.20;;;;;;;18.26;86.67;96009.19;4996117;28;20178;-60
2021/08/08 07:02:23;;;;;;;1.37;0.93;;;;;;;18.32;86.18;96013.38;4996071;28;20629;-65
2021/08/08 07:04:49;;;;;;;3.13;1.27;;;;;;;18.21;85.56;96026.00;4995474;28;20201;-61
2021/08/08 07:07:15;;;;;;;1.40;1.00;;;;;;;18.14;86.41;96030.06;4995961;28;20205;-65
2021/08/08 07:09:41;;;;;;;3.23;1.13;;;;;;;18.19;84.17;96030.03;4995868;28;20261;-65
2021/08/08 07:12:07;;;;;;;1.73;1.40;;;;;;;18.30;84.54;96021.63;4995273;28;20178;-61
2021/08/08 07:14:34;;;;;;;1.30;1.20;;;;;;;18.34;85.25;96022.66;4992891;28;20448;-66
2021/08/08 07:17:00;;;;;;;3.00;1.30;;;;;;;18.27;85.33;96027.53;4995769;28;20166;-65
2021/08/08 07:19:25;;;;;;;3.43;1.40;;;;;;;18.40;84.60;96029.53;4995618;28;20431;-65
2021/08/08 07:21:52;;;;;;;1.73;1.20;;;;;;;18.27;84.28;96024.06;4995550;28;20545;-61
2021/08/08 07:24:18;;;;;;;4.60;1.00;;;;;;;18.33;84.27;96041.59;4995118;28;20259;-60
2021/08/08 07:26:43;;;;;;;7.03;1.50;;;;;;;18.27;82.71;96032.84;4995525;28;20927;-60
2021/08/08 07:29:09;;;;;;;1.73;1.27;;;;;;;18.30;82.91;96034.94;4976194;28;20209;-60
2021/08/08 07:31:34;;;;;;;3.27;1.53;;;;;;;18.26;83.26;96036.56;4976098;28;20178;-60
2021/08/08 07:33:59;;;;;;;2.30;1.10;;;;;;;18.52;83.97;96039.78;4974193;28;20535;-65
2021/08/08 07:36:25;;;;;;;3.73;1.33;;;;;;;18.70;83.79;96040.94;4976075;28;20209;-60
2021/08/08 07:38:50;;;;;;;1.10;1.00;;;;;;;18.67;82.67;96047.63;4975798;28;20224;-60
2021/08/08 07:41:15;;;;;;;2.90;1.30;;;;;;;18.56;83.14;96042.69;4975827;28;20290;-60
2021/08/08 07:43:41;;;;;;;2.50;1.27;;;;;;;18.58;84.04;96053.84;4992433;28;20186;-61
2021/08/08 07:46:06;;;;;;;2.10;1.10;;;;;;;18.58;81.98;96046.66;4994999;28;20263;-61
2021/08/08 07:48:32;;;;;;;2.90;1.40;;;;;;;18.58;79.81;96038.66;4995454;28;20177;-61
2021/08/08 07:50:57;;;;;;;1.57;1.00;;;;;;;18.59;81.54;96044.78;4995175;28;20165;-60
2021/08/08 07:53:24;;;;;;;4.33;1.27;;;;;;;18.60;81.98;96049.84;4994627;28;20205;-66
2021/08/08 07:55:53;;;;;;;1.57;1.20;;;;;;;18.70;80.17;96048.94;4994997;28;20503;-65
2021/08/08 07:58:19;;;;;;;1.33;1.10;;;;;;;18.83;79.57;96043.69;4976942;28;20178;-66
2021/08/08 08:00:45;;;;;;;3.00;1.33;;;;;;;18.91;79.47;96043.06;4975527;28;20485;-61
2021/08/08 08:03:10;;;;;;;1.00;0.90;;;;;;;18.80;78.03;96044.28;4975141;28;20414;-61
2021/08/08 08:05:35;;;;;;;1.77;1.10;;;;;;;18.79;79.09;96034.69;4975491;28;20194;-60
2021/08/08 08:08:01;;;;;;;4.00;1.30;;;;;;;18.85;78.82;96036.22;4991279;28;20667;-66
2021/08/08 08:10:29;;;;;;;1.53;1.23;;;;;;;18.82;79.95;96049.31;4993942;28;20610;-67
2021/08/08 08:12:54;;;;;;;2.10;1.10;;;;;;;18.77;81.13;96054.69;4993563;28;20986;-67
2021/08/08 08:15:19;;;;;;;1.87;1.30;;;;;;;18.76;79.32;96061.88;4994336;28;20429;-67
2021/08/08 08:17:45;;;;;;;2.70;1.20;;;;;;;18.92;79.40;96065.16;4994492;28;20624;-67
2021/08/08 08:20:11;;;;;;;1.30;1.20;;;;;;;18.82;78.93;96058.09;4994526;28;20173;-67
2021/08/08 08:22:36;;;;;;;2.40;1.67;;;;;;;19.01;78.67;96074.09;4994171;28;20582;-61
2021/08/08 08:25:02;;;;;;;2.10;1.03;;;;;;;18.92;77.85;96063.28;4994313;28;20428;-67
2021/08/08 08:27:27;;;;;;;3.43;1.43;;;;;;;19.08;75.97;96061.22;4980343;28;20206;-60
2021/08/08 08:29:52;;;;;;;2.60;1.30;;;;;;;19.17;77.69;96067.47;4977819;28;20207;-60
2021/08/08 08:32:18;;;;;;;1.53;1.40;;;;;;;19.01;75.73;96074.88;4993963;28;20173;-67
2021/08/08 08:34:43;;;;;;;1.17;1.07;;;;;;;19.24;77.78;96065.28;4993711;28;20201;-60
2021/08/08 08:37:08;;;;;;;1.73;1.10;;;;;;;19.38;76.43;96069.66;4981108;28;20521;-59
2021/08/08 08:39:34;;;;;;;1.20;1.00;;;;;;;19.43;75.05;96066.09;4974873;28;20174;-59
2021/08/08 08:42:02;;;;;;;1.90;1.20;;;;;;;19.29;74.84;96073.19;4986330;28;20182;-67
2021/08/08 08:44:29;;;;;;;1.80;1.67;;;;;;;19.53;73.80;96073.16;4993710;28;20646;-65
2021/08/08 08:46:56;;;;;;;1.17;1.07;;;;;;;19.71;71.46;96065.13;4993316;28;20464;-62
2021/08/08 08:49:22;;;;;;;2.70;1.20;;;;;;;19.66;70.47;96070.56;4992150;28;20499;-64
2021/08/08 08:51:54;;;;;;;1.97;1.10;;;;;;;19.61;72.23;96073.28;4993949;28;20863;-62
2021/08/08 08:54:22;;;;;;;3.77;1.10;;;;;;;19.86;72.78;96078.25;4993937;28;20204;-61
2021/08/08 08:56:48;;;;;;;1.87;1.43;;;;;;;19.68;68.88;96067.59;4981026;28;20904;-61
2021/08/08 08:59:14;;;;;;;2.43;1.20;;;;;;;19.82;71.89;96079.91;4990830;28;20424;-64
2021/08/08 09:01:39;;;;;;;3.10;1.53;;;;;;;19.94;70.91;96077.59;4993159;28;20251;-61
2021/08/08 09:04:05;;;;;;;2.23;1.17;;;;;;;19.84;69.36;96075.06;4993335;28;20891;-60
2021/08/08 09:06:30;;;;;;;1.83;1.50;;;;;;;19.97;70.84;96071.66;4993963;28;20189;-61
2021/08/08 09:08:56;;;;;;;2.77;2.50;;;;;;;20.10;70.95;96070.13;4994364;28;20220;-67
2021/08/08 09:11:21;;;;;;;3.40;1.03;;;;;;;20.02;67.22;96074.25;4993707;28;20179;-64
2021/08/08 09:13:55;;;;;;;1.90;1.37;;;;;;;19.87;68.89;96076.38;4978329;28;20189;-64
2021/08/08 09:16:24;;;;;;;1.37;1.27;;;;;;;19.96;68.64;96075.44;4974490;28;20172;-62
2021/08/08 09:18:56;;;;;;;3.23;1.37;;;;;;;20.19;67.71;96069.19;4991724;28;20475;-66
2021/08/08 09:21:23;;;;;;;2.80;1.20;;;;;;;20.20;66.43;96070.00;4994058;28;20416;-64
2021/08/08 09:23:57;;;;;;;1.90;0.93;;;;;;;20.33;65.90;96077.22;4993363;28;20444;-70
2021/08/08 09:26:31;;;;;;;1.37;1.27;;;;;;;20.23;66.42;96072.88;4993610;28;20810;-61
2021/08/08 09:29:05;;;;;;;2.07;1.33;;;;;;;20.36;66.26;96071.31;4975577;28;20970;-67
2021/08/08 09:31:46;;;;;;;2.00;1.00;;;;;;;20.48;64.19;96076.94;4993488;28;20420;-60
2021/08/08 09:34:28;;;;;;;1.40;1.20;;;;;;;20.44;63.70;96074.09;4992603;28;20436;-68
2021/08/08 09:36:56;;;;;;;3.30;1.17;;;;;;;20.52;62.92;96082.50;4993829;28;20419;-60
2021/08/08 09:39:30;;;;;;;2.03;1.10;;;;;;;20.73;62.16;96071.13;4993542;28;20423;-68
2021/08/08 09:42:07;;;;;;;2.53;1.23;;;;;;;20.53;60.11;96082.19;4993345;28;20429;-63
2021/08/08 09:44:33;;;;;;;2.03;1.40;;;;;;;20.71;61.09;96080.53;4993459;28;20511;-62
2021/08/08 09:46:58;;;;;;;5.63;1.27;;;;;;;20.96;61.21;96088.06;4993117;28;21014;-61
2021/08/08 09:49:24;;;;;;;1.20;1.10;;;;;;;20.98;61.26;96085.88;4993066;28;20236;-65
2021/08/08 09:51:51;;;;;;;2.80;1.00;;;;;;;20.70;59.89;96094.97;4987072;28;20167;-63
2021/08/08 09:54:17;;;;;;;1.73;1.00;;;;;;;20.81;60.76;96083.00;4973758;28;20440;-64
2021/08/08 09:56:43;;;;;;;1.57;0.90;;;;;;;20.78;59.35;96088.94;4974170;28;20406;-65
2021/08/08 09:59:08;;;;;;;3.83;1.00;;;;;;;20.83;61.79;96084.31;4987766;28;20788;-61
2021/08/08 10:01:40;;;;;;;2.33;1.80;;;;;;;20.84;63.96;96087.75;4996076;28;20186;-64
2021/08/08 10:04:06;;;;;;;3.00;1.20;;;;;;;20.77;62.59;96090.03;4996652;28;20201;-64
2021/08/08 10:06:33;;;;;;;1.67;1.30;;;;;;;20.76;63.59;96101.81;4993837;28;20502;-63
2021/08/08 10:09:00;;;;;;;1.33;1.20;;;;;;;20.81;62.25;96091.81;4996713;28;20519;-65
2021/08/08 10:11:26;;;;;;;3.23;1.27;;;;;;;20.87;61.32;96093.28;4996492;28;20456;-64
2021/08/08 10:14:01;;;;;;;1.63;1.23;;;;;;;21.07;61.70;96100.16;4996308;28;20922;-63
2021/08/08 10:16:31;;;;;;;1.67;1.20;;;;;;;21.23;61.78;96098.75;4996626;28;20180;-62
2021/08/08 10:19:01;;;;;;;2.43;1.33;;;;;;;21.41;61.23;96092.50;4996941;28;20405;-62
2021/08/08 10:21:27;;;;;;;1.87;1.30;;;;;;;21.57;60.25;96088.38;4996010;28;20423;-62
2021/08/08 10:23:55;;;;;;;2.30;1.30;;;;;;;21.60;57.83;96086.97;4996011;28;20511;-64
2021/08/08 10:26:21;;;;;;;1.30;1.03;;;;;;;21.38;57.36;96093.06;4994211;28;20456;-62
2021/08/08 10:28:51;;;;;;;1.00;0.97;;;;;;;21.32;56.74;96100.41;4991886;28;20429;-64
2021/08/08 10:31:20;;;;;;;3.03;1.10;;;;;;;21.42;58.20;96096.72;4984098;28;20248;-63
2021/08/08 10:33:47;;;;;;;2.20;1.40;;;;;;;21.39;58.30;96090.13;4980938;28;20422;-63
2021/08/08 10:36:45;;;;;;;1.80;1.13;;;;;;;21.38;57.72;96091.19;4983362;28;20445;-70
2021/08/08 10:39:15;;;;;;;2.00;1.30;;;;;;;21.27;58.40;96089.81;4969507;28;20428;-65
2021/08/08 10:41:56;;;;;;;1.20;1.00;;;;;;;21.35;59.62;96093.69;4992241;28;20424;-62
2021/08/08 10:44:22;;;;;;;1.40;0.93;;;;;;;21.40;57.96;96085.53;4991787;28;20448;-59
2021/08/08 10:46:53;;;;;;;3.00;1.37;;;;;;;21.32;57.93;96080.94;4991072;28;20491;-65
2021/08/08 10:49:29;;;;;;;0.90;0.90;;;;;;;21.44;57.73;96090.00;4985072;28;20429;-63
2021/08/08 10:52:08;;;;;;;2.20;1.30;;;;;;;21.19;56.32;96093.22;4972489;28;20421;-60
2021/08/08 10:54:49;;;;;;;2.33;1.40;;;;;;;21.31;57.48;96101.50;4974817;28;21210;-64
2021/08/08 10:57:19;;;;;;;2.27;1.43;;;;;;;21.60;57.96;96086.97;4988980;28;20422;-60
2021/08/08 10:59:47;;;;;;;1.27;1.17;;;;;;;21.55;56.29;96085.22;4975578;28;20416;-60
2021/08/08 11:02:17;;;;;;;2.10;0.90;;;;;;;21.81;56.56;96080.13;4990775;28;20423;-61
2021/08/08 11:04:43;;;;;;;1.10;1.10;;;;;;;21.88;56.45;96086.63;4991554;28;20955;-61
2021/08/08 11:07:09;;;;;;;1.20;1.03;;;;;;;22.02;56.84;96091.91;4982594;28;20472;-61
2021/08/08 11:09:37;;;;;;;1.57;1.40;;;;;;;22.24;56.92;96082.00;4992042;28;20515;-63
2021/08/08 11:12:04;;;;;;;2.30;1.70;;;;;;;22.54;54.44;96096.47;4991403;28;20471;-61
2021/08/08 11:14:30;;;;;;;1.50;1.20;;;;;;;22.62;54.26;96097.66;4991359;28;20523;-64
2021/08/08 11:17:02;;;;;;;3.10;1.87;;;;;;;22.57;53.74;96095.91;4991137;28;20831;-62
2021/08/08 11:19:32;;;;;;;2.53;2.33;;;;;;;22.70;51.88;96089.66;4991781;28;20420;-65
2021/08/08 11:22:24;;;;;;;1.30;1.20;;;;;;;22.59;53.64;96090.25;4991258;28;20436;-65
2021/08/08 11:24:57;;;;;;;2.10;1.27;;;;;;;22.42;52.74;96097.06;4980177;28;20460;-65
2021/08/08 11:27:30;;;;;;;2.10;1.20;;;;;;;22.31;51.40;96092.25;4990995;28;20464;-66
2021/08/08 11:29:56;;;;;;;1.13;1.00;;;;;;;22.18;52.07;96091.25;4991747;28;20495;-65
2021/08/08 11:32:27;;;;;;;1.30;1.20;;;;;;;22.49;53.50;96088.59;4991594;28;20524;-64